createdAt,value
2023-01-23T00:01:26.699Z,1.00
2023-01-23T00:03:54.842Z,1.00
2023-01-23T00:06:22.322Z,99.90
2023-01-23T00:08:49.151Z,1.00
2023-01-23T00:11:18.779Z,1.00
2023-01-23T00:13:45.590Z,1.00
2023-01-23T00:16:15.030Z,99.90
2023-01-23T00:18:42.283Z,99.90
2023-01-23T00:21:12.277Z,99.90
2023-01-23T00:23:42.598Z,99.90
2023-01-23T00:26:16.680Z,99.90
2023-01-23T00:28:44.410Z,99.90
2023-01-23T00:31:15.352Z,1.00
2023-01-23T00:33:43.490Z,99.90
2023-01-23T00:36:11.595Z,99.90
2023-01-23T00:38:38.393Z,99.90
2023-01-23T00:41:05.269Z,99.90
2023-01-23T00:43:32.104Z,1.00
2023-01-23T00:45:59.436Z,99.90
2023-01-23T00:48:26.191Z,99.90
2023-01-23T00:50:53.388Z,1.00
2023-01-23T00:53:20.214Z,99.90
2023-01-23T00:55:46.887Z,99.90
2023-01-23T00:58:13.891Z,99.90
2023-01-23T01:00:40.862Z,99.90
2023-01-23T01:03:08.186Z,99.90
2023-01-23T01:05:35.521Z,99.90
2023-01-23T01:08:02.310Z,99.90
2023-01-23T01:10:29.712Z,99.90
2023-01-23T01:12:57.517Z,99.90
2023-01-23T01:15:24.687Z,99.90
2023-01-23T01:17:54.132Z,99.90
2023-01-23T01:20:25.895Z,99.90
2023-01-23T01:22:54.066Z,99.90
2023-01-23T01:25:21.235Z,99.90
2023-01-23T01:27:48.126Z,99.90
2023-01-23T01:30:16.282Z,99.90
2023-01-23T01:32:43.380Z,99.90
2023-01-23T01:35:11.340Z,99.90
2023-01-23T01:37:39.492Z,99.90
2023-01-23T01:40:08.254Z,99.90
2023-01-23T01:42:43.951Z,99.90
2023-01-23T01:45:48.097Z,99.90
2023-01-23T01:48:15.658Z,99.90
2023-01-23T01:50:43.238Z,99.90
2023-01-23T01:53:11.470Z,99.90
2023-01-23T01:55:39.083Z,99.90
2023-01-23T01:58:06.119Z,99.90
2023-01-23T02:00:32.885Z,99.90
2023-01-23T02:03:03.898Z,99.90
2023-01-23T02:05:46.732Z,99.90
2023-01-23T02:08:30.222Z,99.90
2023-01-23T02:10:56.983Z,99.90
2023-01-23T02:13:35.956Z,99.90
2023-01-23T02:16:04.738Z,99.90
2023-01-23T02:18:34.411Z,99.90
2023-01-23T02:21:05.301Z,99.90
2023-01-23T02:23:37.713Z,99.90
2023-01-23T02:26:08.287Z,99.90
2023-01-23T02:28:44.312Z,99.90
2023-01-23T02:31:12.231Z,99.90
2023-01-23T02:33:38.871Z,99.90
2023-01-23T02:36:08.924Z,99.90
2023-01-23T02:38:40.155Z,99.90
2023-01-23T02:41:12.333Z,99.90
2023-01-23T02:43:39.673Z,99.90
2023-01-23T02:46:09.049Z,99.90
2023-01-23T02:48:37.412Z,99.90
2023-01-23T02:51:04.339Z,99.90
2023-01-23T02:53:31.517Z,99.90
2023-01-23T02:55:59.413Z,99.90
2023-01-23T02:58:44.885Z,99.90
2023-01-23T03:01:11.804Z,99.90
2023-01-23T03:03:38.495Z,99.90
2023-01-23T03:06:06.029Z,99.90
2023-01-23T03:08:36.711Z,99.90
2023-01-23T03:11:04.432Z,99.90
2023-01-23T03:13:31.498Z,99.90
2023-01-23T03:15:58.334Z,99.90
2023-01-23T03:18:27.642Z,99.90
2023-01-23T03:20:54.380Z,99.90
2023-01-23T03:23:21.044Z,99.90
2023-01-23T03:25:49.051Z,99.90
2023-01-23T03:28:34.316Z,99.90
2023-01-23T03:31:01.097Z,99.90
2023-01-23T03:33:27.993Z,99.90
2023-01-23T03:35:54.653Z,99.90
2023-01-23T03:38:21.348Z,99.90
2023-01-23T03:41:08.968Z,99.90
2023-01-23T03:43:35.638Z,99.90
2023-01-23T03:46:02.359Z,99.90
2023-01-23T03:48:29.043Z,99.90
2023-01-23T03:50:55.743Z,99.90
2023-01-23T03:53:23.348Z,99.90
2023-01-23T03:55:50.085Z,99.90
2023-01-23T03:58:17.145Z,99.90
2023-01-23T04:00:43.849Z,99.90
2023-01-23T04:03:10.641Z,99.90
2023-01-23T04:05:37.330Z,99.90
2023-01-23T04:08:04.369Z,99.90
2023-01-23T04:10:31.049Z,99.90
2023-01-23T04:12:57.771Z,99.90
2023-01-23T04:15:24.461Z,99.90
2023-01-23T04:17:51.167Z,99.90
2023-01-23T04:20:18.116Z,99.90
2023-01-23T04:22:45.117Z,99.90
2023-01-23T04:25:11.875Z,99.90
2023-01-23T04:27:38.679Z,99.90
2023-01-23T04:30:05.802Z,99.90
2023-01-23T04:32:32.502Z,99.90
2023-01-23T04:34:59.163Z,99.90
2023-01-23T04:37:25.935Z,99.90
2023-01-23T04:39:52.604Z,99.90
2023-01-23T04:42:19.343Z,99.90
2023-01-23T04:44:46.096Z,99.90
2023-01-23T04:47:12.810Z,99.90
2023-01-23T04:49:39.565Z,99.90
2023-01-23T04:52:06.223Z,99.90
2023-01-23T04:54:33.112Z,99.90
2023-01-23T04:56:59.812Z,99.90
2023-01-23T04:59:26.475Z,99.90
2023-01-23T05:01:53.134Z,99.90
2023-01-23T05:04:19.848Z,99.90
2023-01-23T05:06:46.591Z,99.90
2023-01-23T05:09:13.604Z,99.90
2023-01-23T05:11:40.355Z,99.90
2023-01-23T05:14:07.119Z,99.90
2023-01-23T05:16:33.796Z,99.90
2023-01-23T05:19:00.452Z,99.90
2023-01-23T05:21:27.207Z,99.90
2023-01-23T05:23:53.884Z,99.90
2023-01-23T05:26:20.827Z,99.90
2023-01-23T05:28:47.544Z,99.90
2023-01-23T05:31:14.364Z,99.90
2023-01-23T05:33:41.288Z,99.90
2023-01-23T05:36:08.347Z,99.90
2023-01-23T05:38:35.128Z,99.90
2023-01-23T05:41:02.126Z,99.90
2023-01-23T05:43:28.790Z,99.90
2023-01-23T05:45:55.534Z,99.90
2023-01-23T05:48:22.255Z,99.90
2023-01-23T05:50:49.052Z,99.90
2023-01-23T05:53:15.821Z,99.90
2023-01-23T05:55:42.512Z,99.90
2023-01-23T05:58:09.221Z,99.90
2023-01-23T06:00:36.063Z,99.90
2023-01-23T06:03:02.898Z,99.90
2023-01-23T06:05:29.842Z,99.90
2023-01-23T06:07:56.556Z,99.90
2023-01-23T06:10:23.471Z,99.90
2023-01-23T06:12:50.162Z,99.90
2023-01-23T06:15:16.978Z,99.90
2023-01-23T06:17:43.669Z,99.90
2023-01-23T06:20:12.222Z,99.90
2023-01-23T06:22:38.888Z,99.90
2023-01-23T06:25:06.094Z,99.90
2023-01-23T06:27:32.954Z,99.90
2023-01-23T06:29:59.631Z,99.90
2023-01-23T06:32:26.301Z,99.90
2023-01-23T06:34:52.964Z,99.90
2023-01-23T06:37:19.619Z,99.90
2023-01-23T06:39:46.322Z,99.90
2023-01-23T06:42:12.992Z,99.90
2023-01-23T06:44:39.655Z,99.90
2023-01-23T06:47:06.543Z,99.90
2023-01-23T06:49:33.323Z,99.90
2023-01-23T06:52:00.025Z,99.90
2023-01-23T06:54:26.822Z,99.90
2023-01-23T06:56:53.632Z,99.90
2023-01-23T06:59:20.384Z,99.90
2023-01-23T07:01:47.247Z,99.90
2023-01-23T07:04:14.011Z,99.90
2023-01-23T07:06:40.754Z,99.90
2023-01-23T07:09:07.603Z,99.90
2023-01-23T07:11:36.010Z,99.90
2023-01-23T07:14:02.934Z,99.90
2023-01-23T07:16:29.689Z,99.90
2023-01-23T07:18:58.979Z,99.90
2023-01-23T07:21:25.922Z,99.90
2023-01-23T07:23:52.723Z,99.90
2023-01-23T07:26:19.483Z,99.90
2023-01-23T07:28:46.393Z,99.90
2023-01-23T07:31:13.202Z,99.90
2023-01-23T07:33:40.100Z,99.90
2023-01-23T07:36:07.626Z,99.90
2023-01-23T07:38:34.943Z,99.90
2023-01-23T07:41:01.595Z,99.90
2023-01-23T07:43:28.401Z,99.90
2023-01-23T07:45:57.820Z,99.90
2023-01-23T07:48:24.595Z,99.90
2023-01-23T07:50:51.329Z,99.90
2023-01-23T07:53:18.045Z,99.90
2023-01-23T07:55:45.350Z,99.90
2023-01-23T07:58:12.051Z,99.90
2023-01-23T08:00:39.352Z,99.90
2023-01-23T08:03:06.047Z,99.90
2023-01-23T08:05:32.877Z,99.90
2023-01-23T08:08:14.599Z,99.90
2023-01-23T08:10:42.077Z,99.90
2023-01-23T08:13:08.832Z,99.90
2023-01-23T08:15:37.441Z,99.90
2023-01-23T08:18:04.439Z,99.90
2023-01-23T08:20:31.124Z,99.90
2023-01-23T08:22:59.017Z,99.90
2023-01-23T08:25:25.774Z,99.90
2023-01-23T08:27:52.473Z,99.90
2023-01-23T08:30:19.658Z,99.90
2023-01-23T08:32:47.031Z,99.90
2023-01-23T08:35:13.840Z,99.90
2023-01-23T08:37:42.206Z,99.90
2023-01-23T08:40:10.001Z,99.90
2023-01-23T08:42:36.751Z,99.90
2023-01-23T08:45:03.838Z,99.90
2023-01-23T08:47:30.688Z,99.90
2023-01-23T08:49:57.341Z,99.90
2023-01-23T08:52:24.059Z,99.90
2023-01-23T08:54:50.728Z,99.90
2023-01-23T08:57:17.413Z,99.90
2023-01-23T08:59:44.332Z,99.90
2023-01-23T09:02:12.835Z,99.90
2023-01-23T09:04:39.687Z,99.90
2023-01-23T09:07:06.548Z,99.90
2023-01-23T09:09:33.231Z,99.90
2023-01-23T09:11:59.979Z,99.90
2023-01-23T09:14:26.643Z,99.90
2023-01-23T09:16:53.377Z,99.90
2023-01-23T09:19:20.119Z,99.90
2023-01-23T09:21:46.835Z,99.90
2023-01-23T09:24:13.556Z,99.90
2023-01-23T09:26:40.330Z,99.90
2023-01-23T09:29:07.009Z,99.90
2023-01-23T09:31:33.745Z,99.90
2023-01-23T09:34:00.745Z,99.90
2023-01-23T09:36:41.763Z,99.90
2023-01-23T09:39:09.047Z,99.90
2023-01-23T09:41:35.764Z,99.90
2023-01-23T09:44:12.485Z,99.90
2023-01-23T09:46:50.578Z,99.90
2023-01-23T09:49:25.388Z,99.90
2023-01-23T09:52:06.263Z,99.90
2023-01-23T09:54:44.935Z,99.90
2023-01-23T09:57:15.388Z,99.90
2023-01-23T09:59:59.698Z,99.90
2023-01-23T10:02:27.621Z,99.90
2023-01-23T10:04:55.020Z,99.90
2023-01-23T10:07:45.619Z,99.90
2023-01-23T10:10:33.889Z,99.90
2023-01-23T10:13:18.119Z,99.90
2023-01-23T10:16:04.596Z,99.90
2023-01-23T10:18:42.581Z,99.90
2023-01-23T10:21:25.187Z,99.90
2023-01-23T10:24:40.434Z,99.90
2023-01-23T10:27:26.304Z,99.90
2023-01-23T10:30:00.222Z,99.90
2023-01-23T10:32:29.771Z,99.90
2023-01-23T10:35:07.998Z,99.90
2023-01-23T10:37:54.029Z,99.90
2023-01-23T10:40:42.141Z,99.90
2023-01-23T10:43:17.120Z,99.90
2023-01-23T10:45:46.056Z,99.90
2023-01-23T10:48:34.871Z,99.90
2023-01-23T10:51:01.635Z,99.90
2023-01-23T10:53:28.352Z,99.90
2023-01-23T10:55:58.997Z,99.90
2023-01-23T10:58:41.063Z,99.90
2023-01-23T11:01:26.252Z,99.90
2023-01-23T11:03:53.506Z,99.90
2023-01-23T11:06:25.765Z,99.90
2023-01-23T11:09:00.548Z,99.90
2023-01-23T11:11:36.830Z,99.90
2023-01-23T11:14:12.469Z,99.90
2023-01-23T11:16:39.547Z,99.90
2023-01-23T11:19:09.316Z,99.90
2023-01-23T11:21:58.147Z,99.90
2023-01-23T11:24:38.134Z,99.90
2023-01-23T11:27:20.694Z,99.90
2023-01-23T11:29:59.299Z,99.90
2023-01-23T11:32:26.096Z,99.90
2023-01-23T11:35:13.163Z,99.90
2023-01-23T11:37:41.000Z,99.90
2023-01-23T11:40:17.255Z,99.90
2023-01-23T11:42:45.035Z,99.90
2023-01-23T11:45:52.894Z,99.90
2023-01-23T11:48:34.566Z,99.90
2023-01-23T11:51:28.848Z,99.90
2023-01-23T11:54:20.285Z,99.90
2023-01-23T11:57:19.647Z,99.90
2023-01-23T12:00:17.650Z,99.90
2023-01-23T12:02:58.054Z,99.90
2023-01-23T12:05:31.944Z,99.90
2023-01-23T12:08:27.395Z,99.90
2023-01-23T12:11:13.780Z,99.90
2023-01-23T12:14:13.059Z,99.90
2023-01-23T12:17:12.280Z,99.90
2023-01-23T12:20:05.652Z,99.90
2023-01-23T12:22:47.323Z,99.90
2023-01-23T12:25:35.200Z,99.90
2023-01-23T12:28:31.256Z,99.90
2023-01-23T12:31:27.316Z,99.90
2023-01-23T12:34:29.431Z,99.90
2023-01-23T12:37:29.529Z,99.90
2023-01-23T12:40:11.117Z,99.90
2023-01-23T12:43:09.509Z,99.90
2023-01-23T12:45:41.300Z,99.90
2023-01-23T12:48:18.025Z,99.90
2023-01-23T12:50:49.852Z,99.90
2023-01-23T12:53:20.541Z,99.90
2023-01-23T12:55:59.519Z,99.90
2023-01-23T12:58:29.844Z,99.90
2023-01-23T13:01:04.890Z,99.90
2023-01-23T13:03:58.441Z,99.90
2023-01-23T13:06:54.805Z,99.90
2023-01-23T13:09:43.341Z,99.90
2023-01-23T13:12:21.719Z,99.90
2023-01-23T13:15:10.562Z,99.90
2023-01-23T13:17:48.795Z,99.90
2023-01-23T13:21:14.627Z,99.90
2023-01-23T13:23:41.474Z,99.90
2023-01-23T13:26:11.312Z,99.90
2023-01-23T13:28:46.428Z,99.90
2023-01-23T13:31:52.607Z,99.90
2023-01-23T13:34:19.362Z,99.90
2023-01-23T13:36:48.549Z,99.90
2023-01-23T13:39:18.314Z,99.90
2023-01-23T13:41:49.657Z,99.90
2023-01-23T13:44:35.791Z,99.90
2023-01-23T14:22:11.030Z,99.90
2023-01-23T14:24:47.672Z,99.90
2023-01-23T14:27:52.188Z,99.90
2023-01-23T14:30:28.601Z,99.90
2023-01-23T14:32:55.987Z,99.90
2023-01-23T14:35:30.038Z,99.90
2023-01-23T14:38:03.038Z,99.90
2023-01-23T14:40:37.317Z,99.90
2023-01-23T14:43:08.860Z,99.90
2023-01-23T14:45:37.200Z,99.90
2023-01-23T14:48:07.781Z,99.90
2023-01-23T14:50:35.256Z,99.90
2023-01-23T14:53:04.733Z,99.90
2023-01-23T14:55:36.208Z,99.90
2023-01-23T14:58:04.216Z,99.90
2023-01-23T15:00:31.975Z,99.90
2023-01-23T15:02:58.687Z,99.90
2023-01-23T15:05:29.570Z,99.90
2023-01-23T15:08:20.386Z,99.90
2023-01-23T15:10:50.047Z,99.90
2023-01-23T15:13:24.404Z,99.90
2023-01-23T15:15:57.016Z,99.90
2023-01-23T15:18:23.717Z,99.90
2023-01-23T15:21:04.962Z,99.90
2023-01-23T15:23:33.336Z,99.90
2023-01-23T15:26:24.523Z,99.90
2023-01-23T15:29:18.631Z,99.90
2023-01-23T15:31:50.160Z,99.90
2023-01-23T15:34:24.661Z,99.90
2023-01-23T15:37:09.867Z,99.90
2023-01-23T15:39:46.575Z,99.90
2023-01-23T15:42:13.309Z,99.90
2023-01-23T15:44:41.792Z,99.90
2023-01-23T15:47:09.289Z,99.90
2023-01-23T15:49:38.658Z,99.90
2023-01-23T15:52:28.657Z,99.90
2023-01-23T15:55:01.538Z,99.90
2023-01-23T15:57:28.236Z,99.90
2023-01-23T15:59:55.070Z,99.90
2023-01-23T16:02:33.223Z,99.90
2023-01-23T16:05:01.763Z,99.90
2023-01-23T16:07:34.423Z,99.90
2023-01-23T16:10:15.469Z,99.90
2023-01-23T16:12:42.564Z,99.90
2023-01-23T16:15:17.783Z,99.90
2023-01-23T16:17:44.866Z,99.90
2023-01-23T16:20:21.781Z,99.90
2023-01-23T16:22:54.316Z,99.90
2023-01-23T16:25:43.126Z,99.90
2023-01-23T16:28:14.057Z,99.90
2023-01-23T16:30:40.874Z,99.90
2023-01-23T16:33:07.778Z,99.90
2023-01-23T16:35:34.828Z,99.90
2023-01-23T16:38:01.678Z,99.90
2023-01-23T16:40:32.972Z,99.90
2023-01-23T16:43:02.569Z,99.90
2023-01-23T16:45:31.590Z,99.90
2023-01-23T16:47:58.617Z,99.90
2023-01-23T16:50:37.356Z,99.90
2023-01-23T16:53:27.284Z,99.90
2023-01-23T16:55:56.556Z,99.90
2023-01-23T16:58:26.503Z,99.90
2023-01-23T17:00:59.973Z,99.90
2023-01-23T17:03:32.875Z,99.90
2023-01-23T17:06:00.053Z,99.90
2023-01-23T17:08:26.903Z,99.90
2023-01-23T17:10:57.827Z,99.90
2023-01-23T17:13:24.878Z,99.90
2023-01-23T17:15:54.805Z,99.90
2023-01-23T17:18:29.266Z,99.90
2023-01-23T17:20:56.996Z,99.90
2023-01-23T17:23:25.346Z,99.90
2023-01-23T17:26:00.896Z,99.90
2023-01-23T17:28:29.039Z,99.90
2023-01-23T17:30:57.906Z,99.90
2023-01-23T17:33:27.707Z,99.90
2023-01-23T17:35:54.415Z,99.90
2023-01-23T17:38:23.940Z,99.90
2023-01-23T17:40:51.434Z,99.90
2023-01-23T17:43:19.731Z,99.90
2023-01-23T17:45:50.209Z,99.90
2023-01-23T17:48:21.927Z,99.90
2023-01-23T17:50:48.629Z,99.90
2023-01-23T17:53:16.819Z,99.90
2023-01-23T17:55:47.901Z,99.90
2023-01-23T17:58:15.434Z,99.90
2023-01-23T18:00:43.924Z,99.90
2023-01-23T18:03:17.381Z,99.90
2023-01-23T18:05:44.293Z,99.90
2023-01-23T18:08:15.327Z,99.90
2023-01-23T18:10:45.214Z,99.90
2023-01-23T18:13:20.361Z,99.90
2023-01-23T18:16:11.556Z,99.90
2023-01-23T18:18:40.389Z,99.90
2023-01-23T18:21:17.882Z,99.90
2023-01-23T18:23:45.067Z,99.90
2023-01-23T18:26:14.562Z,99.90
2023-01-23T18:29:15.763Z,99.90
2023-01-23T18:32:08.640Z,99.90
2023-01-23T18:34:45.931Z,99.90
2023-01-23T18:37:25.704Z,99.90
2023-01-23T18:40:22.098Z,99.90
2023-01-23T18:43:03.085Z,99.90
2023-01-23T18:45:30.563Z,99.90
2023-01-23T18:47:57.683Z,99.90
2023-01-23T18:50:26.942Z,99.90
2023-01-23T18:53:12.247Z,99.90
2023-01-23T18:55:51.433Z,99.90
2023-01-23T18:59:11.793Z,1.00
2023-01-23T19:02:17.671Z,56.80
2023-01-23T19:04:56.965Z,64.60
2023-01-23T19:07:24.219Z,66.50
2023-01-23T19:09:51.365Z,67.20
2023-01-23T19:12:42.472Z,67.20
2023-01-23T19:15:36.399Z,67.40
2023-01-23T19:18:39.521Z,67.20
2023-01-23T19:21:24.148Z,67.30
2023-01-23T19:23:58.653Z,67.10
2023-01-23T19:26:32.038Z,66.40
2023-01-23T19:29:08.394Z,65.50
2023-01-23T19:31:45.334Z,65.20
2023-01-23T19:34:14.459Z,63.90
2023-01-23T19:36:41.174Z,60.60
2023-01-23T19:39:07.978Z,57.90
2023-01-23T19:41:43.385Z,51.00
2023-01-23T19:44:16.442Z,39.60
2023-01-23T19:46:43.846Z,25.40
2023-01-23T19:49:11.431Z,1.00
2023-01-23T19:51:39.429Z,1.00
2023-01-23T19:54:09.365Z,1.00
2023-01-23T19:56:37.130Z,1.00
2023-01-23T19:59:03.803Z,1.00
2023-01-23T20:01:48.442Z,1.00
2023-01-23T20:04:18.179Z,1.00
2023-01-23T20:06:45.619Z,99.90
2023-01-23T20:09:14.594Z,99.90
2023-01-23T20:11:42.812Z,99.90
2023-01-23T20:14:09.817Z,99.90
2023-01-23T20:16:42.820Z,99.90
2023-01-23T20:19:19.940Z,99.90
2023-01-23T20:21:48.544Z,99.90
2023-01-23T20:24:18.888Z,99.90
2023-01-23T20:26:47.197Z,99.90
2023-01-23T20:29:13.955Z,99.90
2023-01-23T20:31:41.536Z,99.90
2023-01-23T20:34:10.857Z,99.90
2023-01-23T20:36:39.310Z,99.90
2023-01-23T20:39:11.330Z,99.90
2023-01-23T20:41:40.375Z,99.90
2023-01-23T20:44:07.314Z,99.90
2023-01-23T20:46:36.448Z,99.90
2023-01-23T20:49:06.833Z,99.90
2023-01-23T20:51:36.399Z,99.90
2023-01-23T20:54:03.980Z,99.90
2023-01-23T20:56:30.908Z,99.90
2023-01-23T20:59:19.227Z,99.90
2023-01-23T21:02:05.011Z,99.90
2023-01-23T21:04:33.867Z,99.90
2023-01-23T21:07:01.271Z,99.90
2023-01-23T21:09:28.161Z,99.90
2023-01-23T21:11:55.305Z,99.90
2023-01-23T21:14:23.000Z,99.90
2023-01-23T21:16:50.211Z,99.90
2023-01-23T21:19:17.309Z,99.90
2023-01-23T21:21:44.151Z,99.90
2023-01-23T21:24:10.951Z,99.90
2023-01-23T21:26:38.044Z,99.90
2023-01-23T21:29:06.039Z,99.90
2023-01-23T21:31:35.593Z,99.90
2023-01-23T21:34:04.368Z,99.90
2023-01-23T21:36:31.506Z,99.90
2023-01-23T21:38:58.410Z,99.90
2023-01-23T21:41:25.288Z,99.90
2023-01-23T21:43:52.093Z,99.90
2023-01-23T21:46:18.813Z,99.90
2023-01-23T21:48:45.604Z,99.90
2023-01-23T21:51:20.666Z,99.90
2023-01-23T21:53:49.334Z,99.90
2023-01-23T21:56:18.918Z,99.90
2023-01-23T21:58:47.107Z,99.90
2023-01-23T22:01:35.302Z,99.90
2023-01-23T22:04:05.651Z,99.90
2023-01-23T22:06:33.959Z,99.90
2023-01-23T22:09:00.703Z,99.90
2023-01-23T22:11:27.741Z,99.90
2023-01-23T22:13:54.809Z,99.90
2023-01-23T22:16:28.495Z,99.90
2023-01-23T22:19:02.738Z,99.90
2023-01-23T22:21:29.448Z,99.90
2023-01-23T22:23:56.209Z,99.90
2023-01-23T22:26:23.886Z,99.90
2023-01-23T22:28:51.013Z,99.90
2023-01-23T22:31:18.573Z,99.90
2023-01-23T22:33:47.291Z,99.90
2023-01-23T22:36:17.422Z,99.90
2023-01-23T22:38:44.273Z,99.90
2023-01-23T22:41:15.010Z,99.90
2023-01-23T22:43:41.821Z,99.90
2023-01-23T22:46:12.032Z,99.90
2023-01-23T22:48:39.134Z,99.90
2023-01-23T22:51:17.875Z,99.90
2023-01-23T22:53:45.007Z,99.90
2023-01-23T22:56:12.116Z,99.90
2023-01-23T22:58:38.890Z,99.90
2023-01-23T23:01:06.069Z,99.90
2023-01-23T23:03:34.179Z,99.90
2023-01-23T23:06:03.830Z,99.90
2023-01-23T23:08:30.871Z,99.90
2023-01-23T23:10:59.727Z,99.90
2023-01-23T23:13:26.595Z,99.90
2023-01-23T23:15:53.279Z,99.90
2023-01-23T23:18:20.001Z,99.90
2023-01-23T23:20:46.850Z,99.90
2023-01-23T23:23:13.542Z,99.90
2023-01-23T23:25:40.286Z,99.90
2023-01-23T23:28:06.950Z,99.90
2023-01-23T23:30:33.686Z,99.90
2023-01-23T23:33:00.360Z,99.90
2023-01-23T23:35:27.039Z,99.90
2023-01-23T23:37:53.772Z,99.90
2023-01-23T23:40:20.469Z,99.90
2023-01-23T23:42:47.151Z,99.90
2023-01-23T23:45:13.949Z,99.90
2023-01-23T23:47:40.604Z,99.90
2023-01-23T23:50:08.044Z,99.90
2023-01-23T23:52:40.897Z,99.90
2023-01-23T23:55:08.046Z,99.90
2023-01-23T23:57:34.950Z,99.90
